Time;durP1;ratioP1;P1;durP2;ratioP2;P2;SDS_P1;SDS_P2;PMS_P1;PMS_P2;Temp;Humidity;BMP_temperature;BMP_pressure;BME280_temperature;BME280_humidity;BME280_pressure;Samples;Min_cycle;Max_cycle;Signal;HPM_P1;HPM_P2
2023/10/20 00:02:20;;;;;;;3.85;3.00;;;;;;;20.47;44.13;99136.94;5022525;28;20041;-65
2023/10/20 00:04:46;;;;;;;2.92;2.60;;;;;;;20.48;44.06;99145.66;5025936;28;20052;-65
2023/10/20 00:07:11;;;;;;;4.22;3.28;;;;;;;20.47;44.03;99144.06;5026786;28;20037;-65
2023/10/20 00:09:37;;;;;;;4.70;3.45;;;;;;;20.40;44.04;99133.53;5031284;28;20053;-65
2023/10/20 00:12:04;;;;;;;3.65;3.10;;;;;;;20.45;44.11;99146.91;5030709;28;20042;-65
2023/10/20 00:14:30;;;;;;;4.03;3.28;;;;;;;20.45;44.02;99151.38;5028841;28;20065;-65
2023/10/20 00:16:55;;;;;;;4.32;3.50;;;;;;;20.45;44.23;99133.69;5027351;28;20034;-65
2023/10/20 00:19:21;;;;;;;3.40;3.03;;;;;;;20.43;44.10;99132.28;5029673;28;20049;-65
2023/10/20 00:21:46;;;;;;;4.68;2.85;;;;;;;20.43;44.14;99125.16;5023668;28;20046;-65
2023/10/20 00:24:15;;;;;;;3.67;3.13;;;;;;;20.41;44.16;99118.50;5028179;28;20430;-64
2023/10/20 00:26:41;;;;;;;3.78;2.97;;;;;;;20.43;44.11;99101.38;5027621;28;20048;-65
2023/10/20 00:29:06;;;;;;;3.58;3.28;;;;;;;20.42;44.20;99096.31;5028085;28;20098;-65
2023/10/20 00:31:32;;;;;;;4.10;3.30;;;;;;;20.42;44.06;99091.03;5020939;28;20045;-65
2023/10/20 00:33:58;;;;;;;3.67;2.97;;;;;;;20.42;44.21;99080.44;5026659;28;20831;-65
2023/10/20 00:36:23;;;;;;;4.07;3.30;;;;;;;20.40;44.08;99075.34;5014966;28;20037;-65
2023/10/20 00:38:49;;;;;;;3.55;3.05;;;;;;;20.40;44.17;99083.28;5030971;28;20198;-65
2023/10/20 00:41:15;;;;;;;4.13;3.10;;;;;;;20.41;44.15;99073.56;5025738;28;20047;-65
2023/10/20 00:43:41;;;;;;;4.30;3.55;;;;;;;20.39;44.21;99071.09;5032444;28;20037;-65
2023/10/20 00:46:10;;;;;;;4.00;3.20;;;;;;;20.39;44.13;99075.59;5026139;28;20558;-65
2023/10/20 00:48:36;;;;;;;3.47;3.00;;;;;;;20.39;44.16;99083.50;5021377;28;20043;-64
2023/10/20 00:51:05;;;;;;;3.55;3.05;;;;;;;20.39;44.12;99076.38;5025157;28;20393;-65
2023/10/20 00:53:33;;;;;;;3.35;3.00;;;;;;;20.38;44.18;99071.31;5033191;28;20065;-65
2023/10/20 00:56:00;;;;;;;5.00;4.03;;;;;;;20.32;44.02;99053.75;5028785;28;20646;-65
2023/10/20 00:58:26;;;;;;;4.68;3.17;;;;;;;20.38;44.15;99063.41;5025163;28;20065;-65
2023/10/20 01:00:52;;;;;;;3.78;3.10;;;;;;;20.38;44.24;99066.03;5023212;28;20043;-65
2023/10/20 01:03:18;;;;;;;4.95;3.58;;;;;;;20.33;44.05;99052.69;5022732;28;20041;-65
2023/10/20 01:05:44;;;;;;;4.10;3.22;;;;;;;20.38;44.09;99053.63;5022430;28;20049;-65
2023/10/20 01:08:09;;;;;;;4.35;3.17;;;;;;;20.37;44.23;99052.03;5030509;28;20420;-65
2023/10/20 01:10:35;;;;;;;4.05;3.13;;;;;;;20.35;44.15;99035.56;5022646;28;20038;-65
2023/10/20 01:13:01;;;;;;;5.18;3.55;;;;;;;20.36;44.16;99031.91;5024359;28;20033;-65
2023/10/20 01:15:27;;;;;;;3.80;3.25;;;;;;;20.34;44.17;99020.75;5022113;28;20069;-65
2023/10/20 01:17:54;;;;;;;5.28;3.70;;;;;;;20.33;44.19;99015.69;5012262;28;20041;-65
2023/10/20 01:20:20;;;;;;;3.85;3.20;;;;;;;20.33;44.29;99018.34;5021722;28;20042;-65
2023/10/20 01:22:45;;;;;;;3.97;3.22;;;;;;;20.35;44.16;99026.84;5024334;28;20048;-65
2023/10/20 01:25:11;;;;;;;3.92;3.03;;;;;;;20.35;44.19;99011.78;5024276;28;20049;-65
2023/10/20 01:27:37;;;;;;;4.82;3.63;;;;;;;20.34;44.35;99010.19;5022657;28;20029;-65
2023/10/20 01:30:04;;;;;;;4.65;3.58;;;;;;;20.32;44.16;98999.03;5023514;28;20071;-65
2023/10/20 01:32:29;;;;;;;3.90;2.97;;;;;;;20.33;44.21;98986.63;5027675;28;20037;-65
2023/10/20 01:34:55;;;;;;;3.80;3.25;;;;;;;20.32;44.03;98983.16;5023634;28;20049;-65
2023/10/20 01:37:21;;;;;;;4.97;3.40;;;;;;;20.31;44.08;98983.41;5017907;28;20044;-65
2023/10/20 01:39:47;;;;;;;3.67;2.88;;;;;;;20.32;44.07;98992.94;5032542;28;20128;-65
2023/10/20 01:42:13;;;;;;;4.05;3.33;;;;;;;20.30;44.23;99001.09;5024257;28;20040;-65
2023/10/20 01:44:38;;;;;;;4.47;3.53;;;;;;;20.32;44.19;99022.81;5014978;28;20451;-65
2023/10/20 01:47:04;;;;;;;4.57;3.58;;;;;;;20.26;44.10;99021.06;5022086;28;20034;-64
2023/10/20 01:49:30;;;;;;;5.82;3.55;;;;;;;20.29;44.44;99020.63;5023939;28;20041;-64
2023/10/20 01:51:56;;;;;;;5.38;4.22;;;;;;;20.29;44.22;98998.66;5025994;28;20608;-65
2023/10/20 01:54:23;;;;;;;4.60;3.80;;;;;;;20.29;44.21;98996.00;5025473;28;20040;-65
2023/10/20 01:56:49;;;;;;;4.90;3.67;;;;;;;20.26;44.20;98991.97;5025211;28;20034;-65
2023/10/20 01:59:15;;;;;;;5.00;3.58;;;;;;;20.23;44.22;98998.53;5021919;28;20059;-65
2023/10/20 02:01:41;;;;;;;5.38;4.10;;;;;;;20.25;44.25;99011.53;5026825;28;20065;-65
2023/10/20 02:04:07;;;;;;;4.80;3.50;;;;;;;20.17;44.34;99004.72;5017630;28;20053;-65
2023/10/20 02:06:34;;;;;;;5.00;3.60;;;;;;;20.26;44.34;99002.56;5027319;28;20105;-65
2023/10/20 02:09:00;;;;;;;4.82;3.60;;;;;;;20.25;44.22;99006.22;5021992;28;20053;-64
2023/10/20 02:11:25;;;;;;;4.32;3.45;;;;;;;20.23;44.18;99008.31;5029579;28;20135;-65
2023/10/20 02:13:51;;;;;;;5.50;3.63;;;;;;;20.06;44.23;98973.78;5024594;28;20436;-65
2023/10/20 02:16:17;;;;;;;5.05;3.70;;;;;;;20.22;44.26;98989.00;5028406;28;20124;-65
2023/10/20 02:18:43;;;;;;;5.15;3.58;;;;;;;20.22;44.27;98975.78;5017643;28;20135;-64
2023/10/20 02:21:09;;;;;;;6.40;4.47;;;;;;;20.19;44.27;98970.16;5022206;28;20053;-65
2023/10/20 02:23:38;;;;;;;4.68;3.30;;;;;;;20.20;44.19;98966.47;5019026;28;20057;-65
2023/10/20 02:26:06;;;;;;;4.80;3.85;;;;;;;20.22;44.13;98962.56;5023606;28;20034;-65
2023/10/20 02:28:33;;;;;;;4.28;3.30;;;;;;;20.20;44.11;98972.56;5025848;28;20046;-65
2023/10/20 02:31:00;;;;;;;4.63;3.53;;;;;;;20.20;44.19;98969.13;5026808;28;20082;-65
2023/10/20 02:33:27;;;;;;;4.85;3.88;;;;;;;20.20;44.17;98972.56;5027178;28;20037;-65
2023/10/20 02:35:54;;;;;;;5.68;3.90;;;;;;;20.21;44.28;98979.47;5024634;28;20551;-65
2023/10/20 02:38:20;;;;;;;5.40;3.88;;;;;;;20.20;44.15;98969.91;5022709;28;20115;-65
2023/10/20 02:40:53;;;;;;;4.95;3.75;;;;;;;20.19;44.36;98960.38;5004497;28;20041;-65
2023/10/20 02:43:19;;;;;;;4.25;3.63;;;;;;;20.20;44.22;98962.00;5025562;28;20153;-65
2023/10/20 02:45:54;;;;;;;4.82;3.72;;;;;;;20.19;44.28;98959.56;5021366;28;20041;-65
2023/10/20 02:48:21;;;;;;;5.07;3.50;;;;;;;20.18;44.36;98955.31;5027291;28;20057;-65
2023/10/20 02:50:47;;;;;;;4.78;3.72;;;;;;;20.16;44.21;98949.47;5016487;28;20037;-65
2023/10/20 02:53:17;;;;;;;5.60;3.50;;;;;;;20.19;44.30;98955.09;5024746;28;20506;-65
2023/10/20 02:55:44;;;;;;;5.18;4.00;;;;;;;20.18;44.24;98931.53;5022386;28;20049;-64
2023/10/20 02:58:10;;;;;;;4.32;3.50;;;;;;;20.18;44.26;98935.00;5023596;28;20048;-65
2023/10/20 03:00:40;;;;;;;5.30;4.00;;;;;;;20.18;44.28;98927.06;5024450;28;20033;-65
2023/10/20 03:03:06;;;;;;;4.53;3.58;;;;;;;20.24;44.16;98922.69;5019449;28;20493;-64
2023/10/20 03:05:31;;;;;;;5.18;4.05;;;;;;;20.25;44.11;98899.72;5019325;28;20061;-65
2023/10/20 03:07:58;;;;;;;4.40;3.60;;;;;;;20.39;43.96;98907.19;5031116;28;20477;-65
2023/10/20 03:10:24;;;;;;;4.68;3.70;;;;;;;20.46;43.87;98909.75;5018661;28;20103;-65
2023/10/20 03:12:49;;;;;;;4.38;3.53;;;;;;;20.40;43.82;98906.16;5026738;28;20430;-65
2023/10/20 03:15:15;;;;;;;4.80;3.55;;;;;;;20.46;43.90;98909.75;5020003;28;20103;-65
2023/10/20 03:17:41;;;;;;;5.22;3.97;;;;;;;20.43;43.97;98913.66;5023370;28;20144;-65
2023/10/20 03:20:08;;;;;;;4.20;3.50;;;;;;;20.45;43.96;98914.22;5020450;28;20165;-65
2023/10/20 03:22:34;;;;;;;5.45;3.78;;;;;;;20.41;44.08;98909.63;5024340;28;20037;-65
2023/10/20 03:25:02;;;;;;;4.88;3.53;;;;;;;20.40;44.14;98882.38;5020510;28;20490;-65
2023/10/20 03:27:29;;;;;;;4.93;3.42;;;;;;;20.40;44.24;98887.66;5023003;28;20072;-65
2023/10/20 03:29:54;;;;;;;5.60;3.75;;;;;;;20.38;43.98;98879.16;5025379;28;20041;-65
2023/10/20 03:32:20;;;;;;;4.00;3.40;;;;;;;20.40;44.14;98868.34;5020797;28;20086;-65
2023/10/20 03:34:46;;;;;;;5.15;3.65;;;;;;;20.39;43.93;98862.25;5027555;28;20049;-65
2023/10/20 03:37:13;;;;;;;3.92;3.08;;;;;;;20.40;44.11;98855.13;5018814;28;20054;-65
2023/10/20 03:39:39;;;;;;;5.10;3.35;;;;;;;20.40;44.21;98845.34;5025647;28;20041;-65
2023/10/20 03:42:07;;;;;;;5.18;3.70;;;;;;;20.38;43.98;98841.34;5040403;28;20053;-65
2023/10/20 03:44:33;;;;;;;4.78;3.40;;;;;;;20.33;44.10;98833.31;5026864;28;20130;-65
2023/10/20 03:46:59;;;;;;;4.78;3.80;;;;;;;20.39;44.12;98829.72;5025918;28;20045;-65
2023/10/20 03:49:26;;;;;;;4.05;3.38;;;;;;;20.37;44.14;98829.16;5020901;28;20045;-65
2023/10/20 03:51:51;;;;;;;5.10;3.65;;;;;;;20.37;44.11;98829.16;5022411;28;20033;-65
2023/10/20 03:54:18;;;;;;;5.10;3.90;;;;;;;20.37;43.95;98822.03;5027767;28;20040;-64
2023/10/20 03:56:44;;;;;;;5.70;3.60;;;;;;;20.34;44.12;98830.44;5022482;28;20795;-65
2023/10/20 03:59:10;;;;;;;4.10;3.30;;;;;;;20.33;44.19;98814.81;5030126;28;20138;-65
2023/10/20 04:01:36;;;;;;;5.20;3.50;;;;;;;20.36;44.10;98809.06;5027887;28;20112;-65
2023/10/20 04:04:01;;;;;;;4.28;3.50;;;;;;;20.31;44.18;98783.31;5025820;28;20311;-65
2023/10/20 04:06:27;;;;;;;4.82;3.20;;;;;;;20.12;44.12;98769.44;5031126;28;20441;-65
2023/10/20 04:08:52;;;;;;;5.15;3.80;;;;;;;20.32;44.09;98797.34;5026405;28;20536;-65
2023/10/20 04:11:18;;;;;;;4.85;3.55;;;;;;;20.31;44.15;98783.31;5030841;28;20067;-65
2023/10/20 04:13:44;;;;;;;5.07;3.78;;;;;;;20.33;44.22;98796.31;5022795;28;20045;-64
2023/10/20 04:16:14;;;;;;;4.82;3.70;;;;;;;20.31;44.12;98801.81;5026652;28;20040;-65
2023/10/20 04:18:42;;;;;;;;;;;;;;;20.30;44.27;98807.34;5017629;28;20057;-64
2023/10/20 04:21:11;;;;;;;4.22;3.45;;;;;;;20.31;44.14;98798.38;5024699;28;20406;-65
2023/10/20 04:23:37;;;;;;;4.55;3.53;;;;;;;20.29;44.13;98792.50;5026209;28;20680;-65
2023/10/20 04:26:05;;;;;;;4.93;3.95;;;;;;;20.22;44.23;98785.50;5021828;28;20042;-65
2023/10/20 04:28:41;;;;;;;5.25;3.70;;;;;;;20.25;44.21;98789.50;5024350;28;20049;-65
2023/10/20 04:42:45;;;;;;;4.68;3.50;;;;;;;20.23;44.10;98795.03;5023969;28;20180;-65
2023/10/20 05:01:14;;;;;;;4.10;3.33;;;;;;;20.19;44.11;98753.44;5026414;28;20029;-65
2023/10/20 05:03:53;;;;;;;4.50;3.50;;;;;;;20.22;44.14;98760.91;5024435;28;20030;-65
2023/10/20 05:06:42;;;;;;;4.95;3.60;;;;;;;20.17;44.07;98745.75;5026950;28;20055;-64
2023/10/20 05:09:12;;;;;;;4.97;3.55;;;;;;;20.13;44.16;98733.25;5029485;28;20544;-65
2023/10/20 05:11:39;;;;;;;5.45;3.58;;;;;;;20.18;44.10;98755.28;5023519;28;20057;-64
2023/10/20 05:14:04;;;;;;;5.10;3.50;;;;;;;20.19;44.07;98762.19;5025903;28;20026;-65
2023/10/20 05:16:33;;;;;;;3.80;3.40;;;;;;;20.19;44.02;98753.44;5029554;28;20124;-65
2023/10/20 05:19:01;;;;;;;4.35;3.15;;;;;;;20.18;44.07;98759.78;5025157;28;20068;-65
2023/10/20 05:21:28;;;;;;;4.25;3.38;;;;;;;20.12;44.02;98748.28;5026354;28;20136;-65
2023/10/20 05:23:53;;;;;;;4.32;3.55;;;;;;;20.14;44.11;98753.34;5026452;28;20771;-65
2023/10/20 05:26:19;;;;;;;4.68;3.60;;;;;;;20.11;44.19;98753.81;5027822;28;20179;-65
2023/10/20 05:28:45;;;;;;;4.00;3.13;;;;;;;20.11;44.27;98744.03;5027142;28;20099;-65
2023/10/20 05:31:10;;;;;;;4.32;3.40;;;;;;;20.05;44.21;98744.16;5027791;28;20037;-65
2023/10/20 05:33:36;;;;;;;3.88;3.25;;;;;;;20.05;44.42;98742.31;5027773;28;20041;-65
2023/10/20 05:36:05;;;;;;;5.07;3.60;;;;;;;20.09;44.29;98750.56;5024351;28;20526;-65
2023/10/20 05:38:31;;;;;;;4.60;3.53;;;;;;;20.09;44.11;98759.31;5025861;28;20037;-65
2023/10/20 05:40:58;;;;;;;4.43;3.40;;;;;;;20.03;44.28;98739.09;5026713;28;20434;-65
2023/10/20 05:43:24;;;;;;;3.75;3.17;;;;;;;20.08;44.25;98746.31;5023859;28;20073;-65
2023/10/20 05:45:50;;;;;;;3.92;3.28;;;;;;;20.06;44.31;98732.53;5027563;28;20529;-65
2023/10/20 05:48:16;;;;;;;4.22;3.28;;;;;;;20.07;44.28;98713.00;5030645;28;20037;-65
2023/10/20 05:50:42;;;;;;;4.32;3.17;;;;;;;20.08;44.34;98723.34;5023693;28;20753;-65
2023/10/20 05:53:08;;;;;;;4.90;3.28;;;;;;;20.05;44.39;98715.88;5022955;28;20050;-65
2023/10/20 05:55:34;;;;;;;4.18;3.35;;;;;;;20.06;44.40;98708.75;5030104;28;20164;-64
2023/10/20 05:58:00;;;;;;;3.80;3.10;;;;;;;20.07;44.39;98711.19;5025128;28;20041;-65
2023/10/20 06:00:25;;;;;;;4.20;3.25;;;;;;;20.07;44.45;98684.75;5028345;28;20026;-65
2023/10/20 06:02:51;;;;;;;4.05;3.20;;;;;;;20.07;44.31;98702.44;5023365;28;20502;-69
2023/10/20 06:05:17;;;;;;;4.90;3.30;;;;;;;20.02;44.37;98686.50;5026589;28;20111;-70
2023/10/20 06:07:43;;;;;;;3.92;2.90;;;;;;;20.04;44.40;98687.88;5029668;28;20077;-70
2023/10/20 06:10:11;;;;;;;4.75;3.47;;;;;;;20.04;44.43;98681.78;5023904;28;20054;-69
2023/10/20 06:12:38;;;;;;;4.47;3.08;;;;;;;20.05;44.35;98678.91;5025901;28;20041;-69
2023/10/20 06:15:08;;;;;;;3.92;3.08;;;;;;;20.02;44.44;98666.16;5021991;28;20037;-69
2023/10/20 06:17:34;;;;;;;4.13;3.25;;;;;;;20.05;44.40;98665.69;5031573;28;20086;-70
2023/10/20 06:20:05;;;;;;;4.05;3.08;;;;;;;19.96;44.22;98639.88;5026792;28;20396;-70
2023/10/20 06:22:31;;;;;;;4.00;3.10;;;;;;;20.24;43.95;98647.84;5031110;28;20144;-70
2023/10/20 06:24:58;;;;;;;3.85;2.90;;;;;;;20.50;43.55;98662.38;5019095;28;20037;-69
2023/10/20 06:27:23;;;;;;;4.35;3.38;;;;;;;21.11;42.77;98663.44;5027166;28;20161;-69
2023/10/20 06:29:56;;;;;;;4.30;2.80;;;;;;;21.78;41.06;98641.44;5022598;28;20125;-69
2023/10/20 06:32:56;;;;;;;3.28;2.67;;;;;;;22.41;40.48;98693.94;5029573;28;20832;-70
2023/10/20 06:35:15;;;;;;;3.90;2.85;;;;;;;22.40;40.50;98684.38;5028892;28;20052;-70
2023/10/20 06:37:53;;;;;;;3.58;2.95;;;;;;;22.31;40.29;98709.72;5024565;28;20056;-70
2023/10/20 06:40:20;;;;;;;3.15;2.65;;;;;;;22.12;40.82;98698.63;5024586;28;20036;-70
2023/10/20 06:42:46;;;;;;;3.40;2.78;;;;;;;21.95;41.31;98692.53;5028940;28;20052;-69
2023/10/20 06:45:12;;;;;;;3.60;2.60;;;;;;;21.81;41.45;98697.38;5021856;28;20123;-70
2023/10/20 06:47:40;;;;;;;3.72;2.88;;;;;;;21.66;41.80;98700.59;5028384;28;20045;-69
2023/10/20 06:50:07;;;;;;;3.72;2.90;;;;;;;21.49;42.03;98707.75;5023816;28;20143;-69
2023/10/20 06:52:35;;;;;;;3.63;2.65;;;;;;;21.34;42.56;98708.31;5024839;28;20491;-69
2023/10/20 06:55:05;;;;;;;4.13;2.80;;;;;;;21.21;43.04;98700.69;5021945;28;20714;-67
2023/10/20 06:57:30;;;;;;;;;;;;;;;21.15;43.12;98696.31;5022490;28;20128;-67
2023/10/20 06:59:56;;;;;;;3.25;2.53;;;;;;;21.08;43.38;98696.50;5019154;28;20553;-67
2023/10/20 07:02:21;;;;;;;2.95;2.50;;;;;;;21.06;43.24;98690.63;5022119;28;20044;-67
2023/10/20 07:04:48;;;;;;;3.50;3.20;;;;;;;21.04;43.27;98684.78;5022429;28;20052;-67
2023/10/20 07:07:15;;;;;;;2.78;2.42;;;;;;;20.99;43.22;98670.66;5022745;28;20052;-67
2023/10/20 07:09:41;;;;;;;3.55;2.50;;;;;;;20.95;43.30;98661.59;5019565;28;20053;-67
2023/10/20 07:12:07;;;;;;;3.10;2.80;;;;;;;20.94;43.45;98668.72;5019955;28;20176;-67
2023/10/20 07:14:34;;;;;;;3.90;2.55;;;;;;;20.90;43.65;98680.03;5016537;28;20824;-67
2023/10/20 07:17:03;;;;;;;3.55;2.70;;;;;;;20.89;43.46;98668.66;5026121;28;20515;-67
2023/10/20 07:19:35;;;;;;;2.92;2.25;;;;;;;20.85;43.69;98661.44;5018418;28;20459;-67
2023/10/20 07:22:05;;;;;;;3.97;2.70;;;;;;;20.81;43.56;98679.59;5023180;28;20041;-67
2023/10/20 07:24:31;;;;;;;3.80;2.67;;;;;;;20.75;43.73;98664.69;5024575;28;20090;-67
2023/10/20 07:26:57;;;;;;;3.70;3.00;;;;;;;20.79;43.84;98668.47;5027085;28;20040;-67
2023/10/20 07:29:23;;;;;;;2.90;2.45;;;;;;;20.78;43.72;98672.13;5019341;28;20729;-67
2023/10/20 07:31:49;;;;;;;3.17;2.30;;;;;;;20.75;43.66;98675.25;5028811;28;20047;-67
2023/10/20 07:34:15;;;;;;;3.00;2.40;;;;;;;20.73;43.67;98672.88;5023769;28;20048;-68
2023/10/20 07:36:41;;;;;;;2.88;2.33;;;;;;;20.71;43.62;98667.00;5019228;28;20399;-67
2023/10/20 07:39:16;;;;;;;4.22;2.95;;;;;;;20.69;43.83;98647.94;5020551;28;20037;-67
2023/10/20 07:41:42;;;;;;;3.22;2.30;;;;;;;20.69;43.83;98670.94;5024786;28;20050;-67
2023/10/20 07:44:09;;;;;;;2.80;2.40;;;;;;;20.65;43.81;98661.88;5020046;28;20038;-67
2023/10/20 07:46:35;;;;;;;2.50;2.28;;;;;;;20.62;43.74;98649.09;5022037;28;20034;-67
2023/10/20 07:49:01;;;;;;;3.20;2.42;;;;;;;20.65;43.68;98644.16;5024286;28;20542;-67
2023/10/20 07:51:26;;;;;;;3.17;2.50;;;;;;;20.64;43.97;98647.03;5026348;28;20037;-67
2023/10/20 07:53:52;;;;;;;3.00;2.58;;;;;;;20.61;43.78;98653.59;5022278;28;20867;-68
2023/10/20 07:56:18;;;;;;;2.63;2.13;;;;;;;20.60;43.94;98648.53;5021962;28;20068;-68
2023/10/20 07:58:43;;;;;;;2.58;2.25;;;;;;;20.43;44.01;98620.22;5024941;28;20042;-67
2023/10/20 08:01:09;;;;;;;2.58;2.03;;;;;;;20.57;43.78;98641.09;5016824;28;20048;-67
2023/10/20 08:03:35;;;;;;;2.83;2.20;;;;;;;20.58;43.90;98635.56;5020919;28;20038;-68
2023/10/20 08:06:02;;;;;;;2.50;2.10;;;;;;;20.57;43.80;98644.53;5025791;28;20415;-67
2023/10/20 08:08:28;;;;;;;3.00;2.10;;;;;;;20.51;43.90;98643.66;5023842;28;20087;-68
2023/10/20 08:10:54;;;;;;;2.33;2.03;;;;;;;20.56;43.79;98645.56;5025672;28;20037;-67
2023/10/20 08:13:19;;;;;;;2.25;1.92;;;;;;;20.67;43.52;98651.84;5025790;28;20026;-67
2023/10/20 08:15:45;;;;;;;2.33;2.05;;;;;;;20.86;43.41;98644.50;5027393;28;20060;-68
2023/10/20 08:18:10;;;;;;;2.60;1.92;;;;;;;21.16;42.57;98644.19;5024783;28;20049;-68
2023/10/20 08:20:37;;;;;;;3.28;2.42;;;;;;;21.39;42.47;98636.94;5028296;28;20107;-68
2023/10/20 08:23:03;;;;;;;2.92;2.40;;;;;;;21.36;42.48;98632.13;5025517;28;20048;-67
2023/10/20 08:25:28;;;;;;;2.85;2.15;;;;;;;21.26;42.43;98644.41;5025087;28;20060;-67
2023/10/20 08:27:54;;;;;;;2.70;2.20;;;;;;;21.25;42.85;98650.75;5029791;28;20037;-67
2023/10/20 08:30:20;;;;;;;2.50;1.88;;;;;;;21.17;42.89;98636.00;5029674;28;20100;-68
2023/10/20 08:32:46;;;;;;;2.65;2.10;;;;;;;21.13;42.95;98629.59;5030344;28;20087;-68
2023/10/20 08:35:12;;;;;;;2.22;2.03;;;;;;;21.08;43.11;98625.03;5031606;28;20558;-68
2023/10/20 08:37:38;;;;;;;2.00;1.83;;;;;;;21.08;43.25;98626.88;5020573;28;20049;-67
2023/10/20 08:40:10;;;;;;;2.70;2.22;;;;;;;21.04;43.06;98620.47;5018097;28;20048;-67
2023/10/20 08:42:40;;;;;;;2.88;2.05;;;;;;;20.99;43.12;98615.09;5028979;28;20406;-67
2023/10/20 08:45:11;;;;;;;;;;;;;;;21.01;43.24;98621.75;5028903;28;20098;-67
2023/10/20 08:47:38;;;;;;;3.10;1.95;;;;;;;20.99;43.15;98615.88;5025555;28;19939;-67
2023/10/20 08:50:07;;;;;;;3.20;2.00;;;;;;;20.95;43.46;98612.13;5027551;28;20057;-67
2023/10/20 08:52:34;;;;;;;1.88;1.73;;;;;;;20.86;43.29;98615.41;5025234;28;20045;-67
2023/10/20 08:55:00;;;;;;;2.00;1.80;;;;;;;20.81;43.41;98608.97;5027297;28;20056;-67
2023/10/20 08:57:27;;;;;;;2.70;1.90;;;;;;;20.89;43.63;98617.59;5018859;28;20041;-67
2023/10/20 08:59:54;;;;;;;1.88;1.77;;;;;;;20.87;43.38;98611.72;5021764;28;20049;-67
2023/10/20 09:02:20;;;;;;;1.80;1.70;;;;;;;20.78;43.43;98606.81;5022921;28;20049;-67
2023/10/20 09:04:51;;;;;;;2.20;2.00;;;;;;;20.83;43.38;98608.75;5024486;28;20045;-67
2023/10/20 09:07:17;;;;;;;2.20;1.77;;;;;;;20.80;43.51;98609.22;5023395;28;20037;-67
2023/10/20 09:09:43;;;;;;;2.00;1.77;;;;;;;20.76;43.67;98627.41;5024050;28;20623;-68
2023/10/20 09:12:09;;;;;;;2.20;2.00;;;;;;;20.76;43.42;98614.19;5019023;28;20025;-67
2023/10/20 09:14:39;;;;;;;2.55;1.83;;;;;;;20.74;43.55;98618.91;5021491;28;20757;-67
2023/10/20 09:17:04;;;;;;;2.05;1.70;;;;;;;20.70;43.46;98614.34;5026287;28;20047;-67
2023/10/20 09:19:30;;;;;;;2.92;1.95;;;;;;;20.69;43.63;98607.47;5030053;28;20119;-68
2023/10/20 09:21:57;;;;;;;1.95;1.75;;;;;;;20.71;43.39;98611.47;5021421;28;20488;-67
2023/10/20 09:24:29;;;;;;;2.00;1.85;;;;;;;20.68;43.62;98597.94;5030992;28;20044;-67
2023/10/20 09:26:55;;;;;;;2.70;1.90;;;;;;;20.68;43.51;98614.59;5026044;28;20056;-67
2023/10/20 09:29:22;;;;;;;2.88;1.90;;;;;;;20.68;43.38;98601.38;5018155;28;20040;-68
2023/10/20 09:31:48;;;;;;;2.08;1.88;;;;;;;20.68;43.55;98608.50;5023726;28;21099;-67
2023/10/20 09:34:14;;;;;;;2.05;1.77;;;;;;;20.68;43.56;98600.56;5027366;28;20041;-67
2023/10/20 09:36:46;;;;;;;2.22;1.75;;;;;;;20.74;43.46;98602.25;5024015;28;20081;-67
2023/10/20 09:39:21;;;;;;;2.58;1.80;;;;;;;20.88;43.16;98611.50;5022923;28;20415;-67
2023/10/20 09:41:50;;;;;;;2.47;1.95;;;;;;;20.92;43.18;98601.22;5025128;28;20123;-67
2023/10/20 09:44:25;;;;;;;1.92;1.73;;;;;;;20.88;43.22;98595.63;5024317;28;20076;-68
2023/10/20 09:47:26;;;;;;;3.20;1.75;;;;;;;20.88;43.09;98592.97;5021979;28;20107;-67
2023/10/20 09:49:54;;;;;;;2.10;1.80;;;;;;;20.88;43.24;98600.91;5025484;28;20768;-67
2023/10/20 09:52:20;;;;;;;2.35;1.50;;;;;;;20.82;43.17;98596.56;5023508;28;20037;-67
2023/10/20 09:54:50;;;;;;;1.90;1.70;;;;;;;20.83;43.20;98603.47;5022772;28;20044;-67
2023/10/20 09:57:17;;;;;;;2.10;1.85;;;;;;;20.83;43.19;98605.31;5018708;28;20870;-67
2023/10/20 09:59:43;;;;;;;2.15;1.50;;;;;;;20.86;43.21;98599.53;5019440;28;20057;-67
2023/10/20 10:02:09;;;;;;;2.45;1.90;;;;;;;20.85;43.26;98600.59;5031131;28;20031;-67
2023/10/20 10:04:38;;;;;;;2.42;2.22;;;;;;;20.73;43.31;98582.94;5018549;28;21787;-67
2023/10/20 10:07:04;;;;;;;1.45;1.35;;;;;;;20.80;43.29;98598.63;5027898;28;20032;-67
2023/10/20 10:09:37;;;;;;;1.80;1.70;;;;;;;20.78;43.29;98590.94;5021441;28;20045;-67
2023/10/20 10:12:24;;;;;;;1.50;1.40;;;;;;;20.72;43.33;98573.41;5024988;28;20041;-67
2023/10/20 10:14:57;;;;;;;1.67;1.52;;;;;;;20.83;43.08;98582.31;5018056;28;20168;-67
2023/10/20 10:17:26;;;;;;;2.22;1.65;;;;;;;20.94;43.03;98586.72;5029898;28;20033;-68
2023/10/20 10:19:53;;;;;;;1.90;1.67;;;;;;;20.97;43.01;98582.78;5021049;28;20045;-68
2023/10/20 10:22:26;;;;;;;1.95;1.50;;;;;;;20.96;42.97;98578.53;5017976;28;20507;-68
2023/10/20 10:24:54;;;;;;;1.50;1.25;;;;;;;20.94;42.89;98578.78;5019964;28;20417;-68
2023/10/20 10:27:24;;;;;;;1.45;1.35;;;;;;;20.92;42.98;98569.47;5029878;28;20469;-68
2023/10/20 10:29:57;;;;;;;1.75;1.48;;;;;;;20.94;43.05;98580.63;5026337;28;20132;-68
2023/10/20 10:32:26;;;;;;;1.88;1.60;;;;;;;20.81;43.22;98563.22;5019750;28;20045;-67
2023/10/20 10:34:52;;;;;;;1.90;1.58;;;;;;;20.90;43.08;98574.22;5022837;28;20424;-68
2023/10/20 10:37:35;;;;;;;1.73;1.52;;;;;;;20.85;43.21;98552.97;5021418;28;20175;-68
2023/10/20 10:40:07;;;;;;;1.17;1.08;;;;;;;20.79;43.54;98554.72;5017304;28;20037;-68
2023/10/20 10:42:38;;;;;;;1.38;1.23;;;;;;;20.82;43.25;98564.81;5021039;28;20322;-68
2023/10/20 10:45:27;;;;;;;1.80;1.52;;;;;;;20.80;43.19;98551.03;5022575;28;20037;-68
2023/10/20 10:48:05;;;;;;;1.40;1.30;;;;;;;20.78;43.28;98545.97;5024274;28;20046;-68
2023/10/20 10:50:32;;;;;;;1.92;1.48;;;;;;;20.73;43.26;98534.53;5024081;28;20049;-68
2023/10/20 10:52:58;;;;;;;1.27;1.17;;;;;;;20.74;43.34;98528.19;5025906;28;20037;-68
2023/10/20 10:55:24;;;;;;;1.70;1.42;;;;;;;20.75;43.17;98522.66;5026591;28;20068;-68
2023/10/20 10:57:51;;;;;;;1.17;1.10;;;;;;;20.75;43.22;98525.31;5022620;28;20476;-68
2023/10/20 11:00:16;;;;;;;1.33;1.23;;;;;;;20.77;43.44;98536.44;5025639;28;20648;-68
2023/10/20 11:02:44;;;;;;;2.13;1.40;;;;;;;20.78;43.36;98527.47;5017458;28;20111;-68
2023/10/20 11:05:11;;;;;;;1.90;1.60;;;;;;;20.57;43.21;98496.47;5025241;28;20124;-68
2023/10/20 11:07:36;;;;;;;1.52;1.42;;;;;;;20.76;43.35;98529.56;5025046;28;20156;-68
2023/10/20 11:10:03;;;;;;;1.25;1.10;;;;;;;20.79;43.38;98517.69;5019861;28;20062;-68
2023/10/20 11:12:30;;;;;;;1.50;1.40;;;;;;;20.83;43.20;98502.16;5024577;28;20048;-68
2023/10/20 11:14:59;;;;;;;2.25;1.63;;;;;;;20.83;43.17;98505.59;5018439;28;20060;-68
2023/10/20 11:17:24;;;;;;;1.38;1.27;;;;;;;20.94;42.94;98506.53;5028692;28;20036;-68
2023/10/20 11:19:50;;;;;;;1.33;1.23;;;;;;;20.95;43.12;98508.94;5023673;28;21153;-68
2023/10/20 11:22:16;;;;;;;1.13;1.02;;;;;;;20.94;42.97;98503.91;5020014;28;20045;-68
2023/10/20 11:24:42;;;;;;;1.40;1.30;;;;;;;20.93;42.88;98492.50;5028498;28;20091;-68
2023/10/20 11:27:08;;;;;;;1.27;1.17;;;;;;;20.75;43.12;98469.78;5023116;28;20541;-68
2023/10/20 11:29:36;;;;;;;1.92;1.38;;;;;;;20.86;43.30;98486.59;5018739;28;20129;-68
2023/10/20 11:32:07;;;;;;;1.60;1.50;;;;;;;20.86;43.09;98485.81;5028962;28;20033;-67
2023/10/20 11:34:36;;;;;;;1.05;1.00;;;;;;;20.79;43.26;98465.59;5021074;28;20044;-67
2023/10/20 11:37:03;;;;;;;1.38;1.27;;;;;;;20.77;43.30;98465.03;5021841;28;20079;-67
2023/10/20 11:39:30;;;;;;;1.30;1.20;;;;;;;20.75;43.32;98456.53;5018762;28;20182;-67
2023/10/20 11:41:56;;;;;;;1.30;1.17;;;;;;;20.77;43.30;98454.44;5027638;28;20037;-67
2023/10/20 11:44:24;;;;;;;1.75;1.38;;;;;;;20.62;43.28;98441.00;5021061;28;20482;-67
2023/10/20 11:46:52;;;;;;;1.13;1.13;;;;;;;20.69;43.39;98441.66;5027111;28;20427;-67
2023/10/20 11:49:18;;;;;;;1.25;1.15;;;;;;;20.74;43.26;98446.22;5022941;28;20045;-67
2023/10/20 11:51:44;;;;;;;1.38;1.25;;;;;;;20.74;43.22;98430.34;5029745;28;20064;-67
2023/10/20 11:54:10;;;;;;;1.50;0.95;;;;;;;20.85;43.25;98431.28;5021551;28;20098;-67
2023/10/20 11:56:36;;;;;;;1.25;1.00;;;;;;;20.88;42.94;98412.28;5038848;28;20041;-67
2023/10/20 11:59:02;;;;;;;1.30;1.20;;;;;;;20.95;42.96;98426.94;5021462;28;20052;-67
2023/10/20 12:01:28;;;;;;;2.45;1.50;;;;;;;20.99;42.95;98414.00;5019799;28;20912;-68
2023/10/20 12:03:54;;;;;;;2.13;1.13;;;;;;;20.95;42.81;98403.13;5017241;28;20558;-67